createdAt,value
2022-11-05T00:02:54.666Z,8.70
2022-11-05T00:10:53.117Z,8.70
2022-11-05T00:21:53.942Z,8.70
2022-11-05T00:24:39.662Z,8.70
2022-11-05T00:27:07.281Z,8.60
2022-11-05T00:36:56.061Z,8.60
2022-11-05T00:42:09.728Z,8.60
2022-11-05T00:44:54.808Z,8.60
2022-11-05T00:57:47.221Z,8.60
2022-11-05T01:00:14.415Z,8.60
2022-11-05T01:05:08.582Z,8.60
2022-11-05T01:07:35.317Z,8.70
2022-11-05T01:44:52.572Z,8.50
2022-11-05T01:47:50.233Z,8.60
2022-11-05T01:50:23.105Z,8.60
2022-11-05T01:52:54.201Z,8.70
2022-11-05T01:55:24.989Z,8.70
2022-11-05T01:57:55.809Z,10.20
2022-11-05T02:07:46.651Z,8.60
2022-11-05T02:10:14.849Z,8.60
2022-11-05T02:12:44.388Z,8.60
2022-11-05T02:15:13.298Z,8.70
2022-11-05T02:20:23.526Z,8.70
2022-11-05T02:23:04.400Z,8.70
2022-11-05T02:26:08.495Z,8.70
2022-11-05T02:29:08.982Z,8.80
2022-11-05T02:32:06.574Z,8.80
2022-11-05T02:35:17.343Z,8.90
2022-11-05T02:38:29.836Z,8.90
2022-11-05T02:41:25.086Z,8.90
2022-11-05T02:44:03.541Z,8.90
2022-11-05T02:46:51.900Z,8.90
2022-11-05T02:49:47.476Z,8.90
2022-11-05T02:52:23.336Z,8.90
2022-11-05T02:55:03.026Z,8.90
2022-11-05T03:00:28.424Z,8.90
2022-11-05T03:05:29.340Z,9.00
2022-11-05T03:08:03.977Z,8.90
2022-11-05T03:10:39.493Z,8.90
2022-11-05T03:13:20.630Z,9.00
2022-11-05T03:15:55.130Z,9.00
2022-11-05T03:18:31.661Z,9.00
2022-11-05T03:21:17.501Z,9.00
2022-11-05T03:24:24.546Z,9.00
2022-11-05T03:27:16.916Z,9.00
2022-11-05T03:29:47.282Z,9.00
2022-11-05T03:32:17.338Z,9.00
2022-11-05T03:34:47.693Z,9.00
2022-11-05T03:37:18.329Z,9.00
2022-11-05T03:39:50.769Z,8.90
2022-11-05T03:42:21.293Z,9.10
2022-11-05T03:44:54.202Z,9.10
2022-11-05T03:47:25.812Z,9.10
2022-11-05T03:50:02.774Z,9.00
2022-11-05T03:52:36.273Z,8.90
2022-11-05T03:57:34.369Z,8.70
2022-11-05T04:10:28.106Z,8.70
2022-11-05T04:29:12.141Z,8.60
2022-11-05T04:34:06.479Z,8.60
2022-11-05T04:43:55.496Z,8.60
2022-11-05T04:56:20.909Z,8.60
2022-11-05T04:58:47.874Z,8.60
2022-11-05T05:01:21.257Z,8.70
2022-11-05T05:03:50.085Z,8.70
2022-11-05T05:06:18.643Z,8.70
2022-11-05T05:08:47.787Z,8.70
2022-11-05T05:11:16.534Z,8.70
2022-11-05T05:16:24.228Z,8.70
2022-11-05T05:21:38.525Z,8.80
2022-11-05T05:24:12.462Z,8.80
2022-11-05T05:26:42.374Z,8.90
2022-11-05T05:29:10.152Z,8.90
2022-11-05T05:34:05.803Z,8.70
2022-11-05T05:48:50.213Z,8.60
2022-11-05T06:01:17.279Z,8.40
2022-11-05T06:06:13.531Z,8.30
2022-11-05T06:13:36.003Z,8.30
2022-11-05T06:16:07.753Z,8.20
2022-11-05T06:21:07.056Z,8.10
2022-11-05T06:23:34.768Z,8.10
2022-11-05T06:26:06.431Z,8.10
2022-11-05T06:28:33.589Z,8.10
2022-11-05T06:53:05.400Z,8.60
2022-11-05T07:00:26.451Z,8.50
2022-11-05T07:10:18.535Z,8.50
2022-11-05T07:15:13.133Z,8.50
2022-11-05T07:17:40.462Z,8.60
2022-11-05T07:20:08.309Z,8.60
2022-11-05T07:42:13.623Z,8.60
2022-11-05T07:47:07.892Z,8.70
2022-11-05T08:01:50.072Z,8.50
2022-11-05T08:14:05.221Z,8.50
2022-11-05T08:16:31.916Z,8.50
2022-11-05T08:38:36.738Z,8.50
2022-11-05T08:46:00.598Z,8.60
2022-11-05T09:00:47.503Z,8.90
2022-11-05T09:08:12.661Z,8.80
2022-11-05T09:10:40.576Z,8.90
2022-11-05T09:18:12.827Z,9.00
2022-11-05T09:23:08.319Z,9.20
2022-11-05T09:28:15.972Z,9.30
2022-11-05T09:30:44.991Z,9.40
2022-11-05T09:40:41.561Z,9.60
2022-11-05T09:43:15.285Z,9.60
2022-11-05T09:48:15.843Z,9.70
2022-11-05T09:50:46.754Z,9.70
2022-11-05T09:53:16.317Z,9.70
2022-11-05T09:55:49.325Z,9.80
2022-11-05T09:58:40.882Z,9.80
2022-11-05T10:01:15.382Z,9.90
2022-11-05T10:03:46.097Z,9.90
2022-11-05T10:10:37.860Z,9.90
2022-11-05T10:13:22.502Z,9.90
2022-11-05T10:16:07.445Z,9.70
2022-11-05T10:18:41.204Z,9.70
2022-11-05T10:26:13.377Z,10.00
2022-11-05T10:31:16.956Z,10.20
2022-11-05T10:33:50.048Z,10.10
2022-11-05T10:36:37.021Z,10.10
2022-11-05T10:39:16.395Z,10.20
2022-11-05T10:41:54.989Z,10.30
2022-11-05T10:44:43.721Z,10.40
2022-11-05T10:47:37.882Z,10.50
2022-11-05T10:50:12.140Z,10.60
2022-11-05T10:52:49.032Z,10.60
2022-11-05T10:55:28.967Z,10.60
2022-11-05T10:58:06.740Z,10.60
2022-11-05T11:00:33.349Z,10.70
2022-11-05T11:03:02.779Z,10.70
2022-11-05T11:05:38.600Z,10.60
2022-11-05T11:08:10.928Z,10.60
2022-11-05T11:11:02.343Z,10.60
2022-11-05T11:13:48.189Z,10.60
2022-11-05T11:16:26.953Z,10.70
2022-11-05T11:19:00.701Z,10.70
2022-11-05T11:21:29.643Z,10.70
2022-11-05T11:26:26.327Z,10.80
2022-11-05T11:29:05.589Z,10.80
2022-11-05T11:31:36.854Z,10.90
2022-11-05T11:34:39.049Z,10.80
2022-11-05T11:37:12.858Z,10.90
2022-11-05T11:39:46.921Z,10.80
2022-11-05T11:42:27.941Z,10.90
2022-11-05T11:47:22.645Z,10.90
2022-11-05T11:49:58.355Z,11.00
2022-11-05T11:52:29.139Z,11.00
2022-11-05T11:55:10.906Z,11.10
2022-11-05T11:57:49.025Z,11.10
2022-11-05T12:00:17.355Z,11.10
2022-11-05T12:03:18.607Z,11.10
2022-11-05T12:06:12.771Z,11.10
2022-11-05T12:09:00.553Z,11.20
2022-11-05T12:11:39.966Z,11.20
2022-11-05T12:14:29.882Z,11.30
2022-11-05T12:17:25.744Z,11.20
2022-11-05T12:20:19.847Z,11.20
2022-11-05T12:23:07.652Z,11.20
2022-11-05T12:26:02.491Z,11.20
2022-11-05T12:29:16.644Z,11.20
2022-11-05T12:32:12.699Z,11.30
2022-11-05T12:34:55.525Z,11.40
2022-11-05T12:37:45.688Z,11.50
2022-11-05T12:40:42.820Z,11.60
2022-11-05T12:45:57.444Z,11.70
2022-11-05T12:48:49.812Z,11.80
2022-11-05T12:51:47.761Z,11.70
2022-11-05T12:54:41.839Z,11.70
2022-11-05T12:57:12.700Z,11.70
2022-11-05T13:00:16.726Z,11.60
2022-11-05T13:03:19.053Z,11.70
2022-11-05T13:06:06.410Z,11.70
2022-11-05T13:08:43.603Z,11.80
2022-11-05T13:11:28.940Z,11.80
2022-11-05T13:14:08.891Z,11.70
2022-11-05T13:16:58.654Z,11.80
2022-11-05T13:21:57.662Z,11.70
2022-11-05T13:24:36.180Z,11.60
2022-11-05T13:27:11.627Z,11.50
2022-11-05T13:29:52.526Z,11.50
2022-11-05T13:32:28.287Z,11.50
2022-11-05T13:34:56.619Z,11.40
2022-11-05T13:37:49.372Z,11.40
2022-11-05T13:40:20.045Z,11.40
2022-11-05T13:42:58.403Z,11.30
2022-11-05T13:45:42.726Z,11.30
2022-11-05T13:48:12.534Z,11.30
2022-11-05T13:50:51.424Z,11.10
2022-11-05T13:53:41.197Z,11.30
2022-11-05T13:56:41.880Z,11.30
2022-11-05T13:59:26.673Z,11.30
2022-11-05T14:02:04.237Z,11.30
2022-11-05T14:07:11.783Z,11.30
2022-11-05T14:09:40.478Z,11.20
2022-11-05T14:12:24.599Z,11.20
2022-11-05T14:14:58.891Z,11.20
2022-11-05T14:17:53.715Z,11.20
2022-11-05T14:20:32.641Z,11.20
2022-11-05T14:23:17.526Z,11.20
2022-11-05T14:28:36.381Z,11.20
2022-11-05T14:31:05.209Z,11.20
2022-11-05T14:33:37.971Z,11.10
2022-11-05T14:36:22.540Z,11.00
2022-11-05T14:38:51.946Z,10.90
2022-11-05T14:41:20.033Z,11.00
2022-11-05T14:44:07.288Z,11.00
2022-11-05T14:46:43.174Z,11.00
2022-11-05T14:49:22.706Z,11.00
2022-11-05T14:51:52.380Z,10.90
2022-11-05T14:54:41.791Z,11.00
2022-11-05T14:57:15.471Z,10.80
2022-11-05T15:00:00.812Z,10.90
2022-11-05T15:02:52.299Z,10.90
2022-11-05T15:05:36.168Z,10.90
2022-11-05T15:08:41.659Z,10.90
2022-11-05T15:11:21.840Z,10.90
2022-11-05T15:13:54.306Z,10.90
2022-11-05T15:16:47.349Z,10.90
2022-11-05T15:19:31.527Z,10.90
2022-11-05T15:22:00.899Z,10.80
2022-11-05T15:27:07.217Z,10.80
2022-11-05T15:29:33.993Z,10.80
2022-11-05T15:34:35.370Z,10.80
2022-11-05T15:37:12.155Z,10.80
2022-11-05T15:42:16.300Z,10.80
2022-11-05T15:44:45.632Z,10.80
2022-11-05T15:47:21.818Z,10.80
2022-11-05T15:49:53.331Z,10.60
2022-11-05T15:52:30.946Z,10.70
2022-11-05T15:55:26.908Z,10.70
2022-11-05T15:58:03.617Z,10.70
2022-11-05T16:00:33.367Z,10.70
2022-11-05T16:03:26.120Z,10.60
2022-11-05T16:05:53.711Z,10.50
2022-11-05T16:08:23.788Z,10.50
2022-11-05T16:10:58.827Z,10.50
2022-11-05T16:13:36.543Z,10.30
2022-11-05T16:16:06.893Z,10.50
2022-11-05T16:18:35.783Z,10.40
2022-11-05T16:21:06.574Z,10.40
2022-11-05T16:23:45.577Z,10.40
2022-11-05T16:31:55.347Z,10.30
2022-11-05T16:34:40.483Z,10.30
2022-11-05T16:37:12.723Z,10.30
2022-11-05T16:42:33.993Z,10.20
2022-11-05T16:47:27.612Z,10.10
2022-11-05T16:57:25.491Z,10.00
2022-11-05T17:12:10.913Z,9.90
2022-11-05T17:17:05.300Z,9.90
2022-11-05T17:19:31.915Z,9.90
2022-11-05T17:21:58.540Z,9.90
2022-11-05T17:36:40.527Z,9.80
2022-11-05T17:41:34.188Z,9.80
2022-11-05T17:56:28.810Z,9.70
2022-11-05T17:59:00.667Z,9.70
2022-11-05T18:01:33.314Z,9.70
2022-11-05T18:09:03.870Z,9.70
2022-11-05T18:18:52.616Z,9.60
2022-11-05T18:26:14.951Z,9.70
2022-11-05T18:28:42.554Z,9.60
2022-11-05T18:31:20.353Z,9.60
2022-11-05T18:33:48.732Z,9.60
2022-11-05T18:36:23.912Z,9.60
2022-11-05T18:38:50.877Z,9.60
2022-11-05T18:41:18.445Z,9.60
2022-11-05T18:46:29.206Z,9.50
2022-11-05T18:56:18.717Z,9.50
2022-11-05T19:01:18.859Z,9.50
2022-11-05T19:03:46.005Z,9.50
2022-11-05T19:06:12.915Z,9.40
2022-11-05T19:08:39.920Z,9.50
2022-11-05T19:11:13.192Z,9.40
2022-11-05T19:13:40.545Z,9.40
2022-11-05T19:16:13.975Z,9.40
2022-11-05T19:18:41.136Z,9.40
2022-11-05T19:21:09.651Z,9.40
2022-11-05T19:26:07.329Z,9.40
2022-11-05T19:28:34.254Z,9.40
2022-11-05T19:31:01.148Z,9.40
2022-11-05T19:50:45.559Z,9.40
2022-11-05T19:55:40.858Z,9.40
2022-11-05T19:58:08.476Z,9.40
2022-11-05T20:15:19.572Z,9.20
2022-11-05T20:17:51.031Z,9.20
2022-11-05T20:20:18.566Z,9.20
2022-11-05T20:25:13.181Z,9.20
2022-11-05T20:35:02.041Z,9.30
2022-11-05T20:49:43.761Z,9.30
2022-11-05T20:52:10.483Z,9.20
2022-11-05T20:59:31.975Z,9.30
2022-11-05T21:01:58.651Z,9.20
2022-11-05T21:06:53.228Z,9.30
2022-11-05T21:12:05.618Z,9.30
2022-11-05T21:14:32.188Z,9.30
2022-11-05T21:24:20.172Z,9.30
2022-11-05T21:29:17.220Z,9.20
2022-11-05T21:36:40.149Z,9.20
2022-11-05T21:39:12.971Z,9.20
2022-11-05T21:44:07.313Z,9.10
2022-11-05T22:02:23.429Z,9.10
2022-11-05T22:04:52.675Z,9.10
2022-11-05T22:07:22.907Z,9.00
2022-11-05T22:09:49.874Z,9.00
2022-11-05T22:17:11.987Z,8.90
2022-11-05T22:22:06.843Z,9.00
2022-11-05T22:24:34.733Z,9.00
2022-11-05T22:27:04.399Z,8.90
2022-11-05T22:29:31.155Z,8.90
2022-11-05T22:34:25.789Z,8.90
2022-11-05T22:36:53.372Z,8.90
2022-11-05T22:46:43.460Z,8.90
2022-11-05T22:49:10.506Z,8.90
2022-11-05T22:51:38.288Z,8.90
2022-11-05T22:54:06.221Z,8.90
2022-11-05T22:56:37.822Z,8.90
2022-11-05T22:59:05.456Z,8.90
2022-11-05T23:06:47.713Z,8.90
2022-11-05T23:09:47.954Z,8.90
2022-11-05T23:12:33.077Z,8.90
2022-11-05T23:15:01.766Z,8.90
2022-11-05T23:20:39.499Z,8.90
2022-11-05T23:23:28.832Z,8.90
2022-11-05T23:25:59.926Z,8.90
2022-11-05T23:33:39.317Z,8.90
2022-11-05T23:49:44.291Z,9.00
2022-11-05T23:54:37.895Z,9.00
2022-11-05T23:57:04.881Z,9.00
